This is the latest recevied weather packets stored in our database for station/object K7MT-WX. If no packets are shown the sender has not sent any weather packets the latest 10 day(s).
| Time | Temp. | Humidity | Pressure | Rain* | Wind** | Luminosity | Snow |
|---|---|---|---|---|---|---|---|
| 1777815070 | 3.89° C | 82% | 1016.2 hPa | 0 mm | - | - | - |
| 1777814170 | 3.89° C | 81% | 1016.1 hPa | 0 mm | - | - | - |
| 1777813270 | 4.44° C | 80% | 1016 hPa | 0 mm | - | - | - |
| 1777812370 | 3.89° C | 83% | 1015.9 hPa | 0 mm | - | - | - |
| 1777811470 | 3.33° C | 85% | 1015.7 hPa | 0 mm | - | - | - |
| 1777810570 | 3.33° C | 85% | 1015.7 hPa | 0 mm | - | - | - |
| 1777809670 | 3.33° C | 86% | 1015.7 hPa | 0 mm | - | - | - |
| 1777808770 | 3.33° C | 87% | 1015.7 hPa | 0 mm | - | - | - |
| 1777807870 | 3.33° C | 86% | 1015.7 hPa | 0 mm | - | - | - |
| 1777806970 | 3.33° C | 86% | 1015.8 hPa | 0 mm | - | - | - |
| 1777806070 | 3.89° C | 83% | 1015.9 hPa | 0 mm | - | - | - |
| 1777805170 | 4.44° C | 83% | 1015.9 hPa | 0 mm | - | - | - |
| 1777804270 | 4.44° C | 81% | 1015.9 hPa | 0 mm | - | - | - |
| 1777803370 | 6.11° C | 77% | 1015.9 hPa | 0 mm | - | - | - |
| 1777802470 | 6.67° C | 77% | 1015.8 hPa | 0 mm | - | - | - |
| 1777801570 | 7.22° C | 77% | 1015.8 hPa | 0 mm | - | - | - |
| 1777800670 | 7.78° C | 75% | 1015.7 hPa | 0 mm | - | - | - |
| 1777799770 | 8.33° C | 72% | 1016 hPa | 0 mm | - | - | - |
| 1777798870 | 8.33° C | 71% | 1015.7 hPa | 0 mm | - | - | - |
| 1777797970 | 8.33° C | 70% | 1015.6 hPa | 0 mm | - | - | - |
| 1777797040 | 8.33° C | 73% | 1015.8 hPa | 0 mm | - | - | - |
| 1777796140 | 8.33° C | 72% | 1015.9 hPa | 0 mm | - | - | - |
| 1777795240 | 8.33° C | 72% | 1015.9 hPa | 0 mm | - | - | - |
| 1777794340 | 8.89° C | 71% | 1015.8 hPa | 0 mm | - | - | - |
| 1777793440 | 9.44° C | 69% | 1015.6 hPa | 0 mm | - | - | - |
* Rain latest hour (hover to see other rain measurements)
** Current wind speed in m/s (hover to see current wind gust speed)